createdAt,value
2022-12-03T00:01:45.143Z,100867.94
2022-12-03T00:04:16.214Z,100863.09
2022-12-03T00:06:47.731Z,100862.34
2022-12-03T00:09:18.652Z,100875.34
2022-12-03T00:11:50.052Z,100865.53
2022-12-03T00:14:21.009Z,100869.91
2022-12-03T00:16:51.897Z,100869.69
2022-12-03T00:19:23.237Z,100871.44
2022-12-03T00:21:54.216Z,100856.78
2022-12-03T00:24:24.964Z,100856.28
2022-12-03T00:26:55.728Z,100847.41
2022-12-03T00:29:26.563Z,100862.03
2022-12-03T00:31:57.858Z,100860.53
2022-12-03T00:34:28.582Z,100850.03
2022-12-03T00:36:59.785Z,100846.72
2022-12-03T00:39:31.046Z,100854.78
2022-12-03T00:42:02.008Z,100860.88
2022-12-03T00:44:32.930Z,100865.00
2022-12-03T00:47:03.953Z,100872.91
2022-12-03T00:49:35.110Z,100869.19
2022-12-03T00:52:06.431Z,100866.84
2022-12-03T00:54:37.501Z,100848.47
2022-12-03T00:57:08.696Z,100860.56
2022-12-03T00:59:39.859Z,100853.53
2022-12-03T01:02:11.088Z,100864.44
2022-12-03T01:04:42.029Z,100850.78
2022-12-03T01:07:12.858Z,100854.94
2022-12-03T01:09:43.887Z,100854.16
2022-12-03T01:12:14.696Z,100856.16
2022-12-03T01:14:45.427Z,100846.94
2022-12-03T01:17:16.517Z,100840.19
2022-12-03T01:19:48.567Z,100837.72
2022-12-03T01:22:19.544Z,100846.63
2022-12-03T01:24:50.696Z,100843.19
2022-12-03T01:27:22.089Z,100836.25
2022-12-03T01:29:53.015Z,100829.06
2022-12-03T01:32:23.680Z,100834.59
2022-12-03T01:34:58.140Z,100831.16
2022-12-03T01:37:29.685Z,100834.00
2022-12-03T01:40:00.927Z,100830.81
2022-12-03T01:42:39.081Z,100834.09
2022-12-03T01:45:16.884Z,100823.06
2022-12-03T01:48:02.207Z,100821.44
2022-12-03T01:50:34.796Z,100836.69
2022-12-03T01:53:06.566Z,100833.63
2022-12-03T01:55:39.099Z,100824.22
2022-12-03T01:58:12.346Z,100816.97
2022-12-03T02:00:43.221Z,100822.25
2022-12-03T02:03:28.321Z,100817.78
2022-12-03T02:05:59.272Z,100816.28
2022-12-03T02:08:38.396Z,100812.56
2022-12-03T02:11:22.769Z,100810.72
2022-12-03T02:14:18.649Z,100809.38
2022-12-03T02:17:04.438Z,100799.38
2022-12-03T02:19:36.024Z,100805.44
2022-12-03T02:22:21.740Z,100811.81
2022-12-03T02:25:16.492Z,100821.03
2022-12-03T02:27:48.038Z,100807.84
2022-12-03T02:30:20.398Z,100815.50
2022-12-03T02:32:51.946Z,100809.56
2022-12-03T02:35:28.091Z,100811.78
2022-12-03T02:38:08.885Z,100808.06
2022-12-03T02:40:40.507Z,100811.00
2022-12-03T02:43:12.059Z,100816.63
2022-12-03T02:45:46.068Z,100811.03
2022-12-03T02:48:20.187Z,100810.38
2022-12-03T02:51:01.604Z,100808.09
2022-12-03T02:53:36.236Z,100814.09
2022-12-03T02:56:07.999Z,100807.16
2022-12-03T02:58:39.328Z,100820.59
2022-12-03T03:01:10.857Z,100815.38
2022-12-03T03:03:42.154Z,100802.72
2022-12-03T03:06:13.495Z,100813.09
2022-12-03T03:08:45.198Z,100808.53
2022-12-03T03:11:15.905Z,100817.34
2022-12-03T03:13:46.877Z,100815.34
2022-12-03T03:16:19.043Z,100812.91
2022-12-03T03:18:50.080Z,100810.81
2022-12-03T03:21:21.746Z,100816.19
2022-12-03T03:23:52.718Z,100814.84
2022-12-03T03:26:23.671Z,100804.34
2022-12-03T03:28:54.786Z,100811.13
2022-12-03T03:31:26.606Z,100813.78
2022-12-03T03:33:57.466Z,100825.16
2022-12-03T03:36:28.722Z,100813.09
2022-12-03T03:38:59.746Z,100819.41
2022-12-03T03:41:31.703Z,100819.19
2022-12-03T03:44:02.665Z,100818.63
2022-12-03T03:46:34.835Z,100813.38
2022-12-03T03:49:07.529Z,100836.53
2022-12-03T03:51:38.555Z,100817.84
2022-12-03T03:54:09.687Z,100832.47
2022-12-03T03:56:40.600Z,100825.75
2022-12-03T03:59:11.561Z,100822.28
2022-12-03T04:01:43.111Z,100819.25
2022-12-03T04:04:25.331Z,100826.88
2022-12-03T04:06:56.353Z,100832.97
2022-12-03T04:09:27.968Z,100835.38
2022-12-03T04:12:19.251Z,100834.50
2022-12-03T04:14:50.576Z,100830.88
2022-12-03T04:17:22.180Z,100833.22
2022-12-03T04:19:53.431Z,100832.31
2022-12-03T04:22:42.486Z,100826.03
2022-12-03T04:25:31.393Z,100831.19
2022-12-03T04:28:21.376Z,100823.66
2022-12-03T04:30:52.507Z,100822.34
2022-12-03T04:33:41.361Z,100837.50
2022-12-03T04:36:12.616Z,100834.31
2022-12-03T04:38:43.179Z,100825.84
2022-12-03T04:41:14.277Z,100820.66
2022-12-03T04:44:03.319Z,100831.03
2022-12-03T04:46:34.036Z,100834.69
2022-12-03T04:49:04.806Z,100825.34
2022-12-03T04:51:35.967Z,100830.38
2022-12-03T04:54:07.767Z,100842.63
2022-12-03T04:56:38.976Z,100836.00
2022-12-03T04:59:15.597Z,100837.22
2022-12-03T05:01:47.366Z,100839.88
2022-12-03T05:04:18.635Z,100845.44
2022-12-03T05:06:49.799Z,100845.94
2022-12-03T05:09:21.136Z,100847.81
2022-12-03T05:11:52.410Z,100843.06
2022-12-03T05:14:24.279Z,100859.41
2022-12-03T05:16:55.227Z,100852.72
2022-12-03T05:19:46.389Z,100856.66
2022-12-03T05:22:17.311Z,100859.44
2022-12-03T05:24:48.506Z,100862.31
2022-12-03T05:27:23.742Z,100857.19
2022-12-03T05:29:55.626Z,100867.97
2022-12-03T05:32:26.740Z,100861.88
2022-12-03T05:34:57.704Z,100856.34
2022-12-03T05:37:28.670Z,100857.56
2022-12-03T05:39:59.933Z,100851.69
2022-12-03T05:42:48.760Z,100855.28
2022-12-03T05:45:20.784Z,100859.66
2022-12-03T05:47:51.812Z,100868.44
2022-12-03T05:50:24.585Z,100875.88
2022-12-03T05:52:58.252Z,100862.19
2022-12-03T05:55:29.732Z,100875.88
2022-12-03T05:58:01.160Z,100888.56
2022-12-03T06:00:42.760Z,100894.22
2022-12-03T06:03:14.260Z,100892.00
2022-12-03T06:05:45.611Z,100898.56
2022-12-03T06:08:16.343Z,100891.44
2022-12-03T06:10:47.289Z,100907.75
2022-12-03T06:13:18.300Z,100908.84
2022-12-03T06:15:49.269Z,100907.00
2022-12-03T06:18:20.160Z,100905.72
2022-12-03T06:20:51.411Z,100919.41
2022-12-03T06:23:22.359Z,100918.28
2022-12-03T06:25:53.160Z,100919.78
2022-12-03T06:28:24.356Z,100931.00
2022-12-03T06:30:55.141Z,100928.44
2022-12-03T06:33:26.388Z,100939.25
2022-12-03T06:35:57.317Z,100943.56
2022-12-03T06:38:28.243Z,100939.38
2022-12-03T06:40:59.224Z,100939.94
2022-12-03T06:43:30.164Z,100951.47
2022-12-03T06:46:01.159Z,100951.25
2022-12-03T06:48:32.647Z,100958.72
2022-12-03T06:51:03.682Z,100969.22
2022-12-03T06:53:34.586Z,100972.84
2022-12-03T06:59:59.564Z,100987.34
2022-12-03T07:02:30.554Z,100982.81
2022-12-03T07:05:01.628Z,100990.19
2022-12-03T07:07:34.875Z,100990.25
2022-12-03T07:10:06.546Z,100999.81
2022-12-03T07:12:37.736Z,100993.34
2022-12-03T07:15:09.015Z,100997.28
2022-12-03T07:17:40.402Z,101007.53
2022-12-03T07:20:11.491Z,101002.25
2022-12-03T07:22:43.086Z,101016.41
2022-12-03T07:25:21.209Z,101016.13
2022-12-03T07:27:53.990Z,101017.16
2022-12-03T07:30:25.734Z,101026.81
2022-12-03T07:32:56.160Z,101030.41
2022-12-03T07:35:26.991Z,101041.66
2022-12-03T07:37:57.973Z,101036.22
2022-12-03T07:40:29.085Z,101041.63
2022-12-03T07:43:00.040Z,101042.59
2022-12-03T07:45:30.935Z,101037.63
2022-12-03T07:48:01.857Z,101046.41
2022-12-03T07:50:32.797Z,101047.53
2022-12-03T07:53:04.097Z,101049.22
2022-12-03T07:55:35.095Z,101049.72
2022-12-03T07:58:05.820Z,101053.81
2022-12-03T08:00:36.753Z,101067.72
2022-12-03T08:03:07.658Z,101061.72
2022-12-03T08:05:38.597Z,101076.47
2022-12-03T08:08:09.665Z,101079.72
2022-12-03T08:10:40.691Z,101087.31
2022-12-03T08:13:19.860Z,101086.78
2022-12-03T08:19:11.954Z,101096.28
2022-12-03T08:21:43.108Z,101107.72
2022-12-03T08:24:23.853Z,101109.91
2022-12-03T08:26:54.798Z,101097.94
2022-12-03T08:29:26.855Z,101110.19
2022-12-03T08:31:58.500Z,101105.31
2022-12-03T08:34:31.272Z,101112.34
2022-12-03T08:37:25.027Z,101117.50
2022-12-03T08:39:57.357Z,101113.44
2022-12-03T08:42:44.380Z,101125.28
2022-12-03T08:45:41.123Z,101133.25
2022-12-03T08:48:21.093Z,101134.63
2022-12-03T08:50:52.850Z,101131.09
2022-12-03T08:53:50.806Z,101138.72
2022-12-03T08:56:28.965Z,101139.97
2022-12-03T08:59:03.146Z,101149.13
2022-12-03T09:01:44.647Z,101144.03
2022-12-03T09:04:33.837Z,101148.38
2022-12-03T09:07:06.667Z,101152.41
2022-12-03T09:09:37.608Z,101149.41
2022-12-03T09:12:10.176Z,101148.56
2022-12-03T09:14:41.075Z,101154.25
2022-12-03T09:17:11.915Z,101151.28
2022-12-03T09:19:46.575Z,101151.44
2022-12-03T09:22:18.840Z,101158.47
2022-12-03T09:24:50.148Z,101154.44
2022-12-03T09:27:22.266Z,101167.16
2022-12-03T09:29:53.694Z,101172.34
2022-12-03T09:32:24.471Z,101169.03
2022-12-03T09:34:56.221Z,101177.34
2022-12-03T09:37:26.645Z,101186.38
2022-12-03T09:39:58.167Z,101178.69
2022-12-03T09:42:29.264Z,101183.38
2022-12-03T09:45:17.517Z,101184.44
2022-12-03T09:47:51.952Z,101181.72
2022-12-03T09:50:27.847Z,101182.22
2022-12-03T09:53:03.601Z,101188.72
2022-12-03T09:55:34.521Z,101179.34
2022-12-03T09:58:10.785Z,101184.97
2022-12-03T10:00:42.859Z,101196.50
2022-12-03T10:03:16.445Z,101204.69
2022-12-03T10:05:48.364Z,101203.72
2022-12-03T10:08:26.091Z,101207.25
2022-12-03T10:11:01.342Z,101205.50
2022-12-03T10:13:33.424Z,101203.34
2022-12-03T10:16:04.259Z,101200.81
2022-12-03T10:18:41.477Z,101206.53
2022-12-03T10:21:27.508Z,101215.28
2022-12-03T10:24:22.004Z,101210.63
2022-12-03T10:26:56.083Z,101212.84
2022-12-03T10:29:33.627Z,101203.41
2022-12-03T10:32:11.431Z,101204.56
2022-12-03T10:34:43.961Z,101213.00
2022-12-03T10:37:20.620Z,101211.50
2022-12-03T10:40:13.011Z,101214.09
2022-12-03T10:42:44.193Z,101208.84
2022-12-03T10:45:23.845Z,101213.09
2022-12-03T10:48:14.452Z,101205.13
2022-12-03T10:50:54.319Z,101197.53
2022-12-03T10:53:28.922Z,101204.88
2022-12-03T10:56:01.631Z,101203.06
2022-12-03T10:58:40.530Z,101207.88
2022-12-03T11:01:23.493Z,101205.19
2022-12-03T11:03:54.816Z,101212.34
2022-12-03T11:06:26.077Z,101215.13
2022-12-03T11:09:01.527Z,101216.28
2022-12-03T11:11:36.073Z,101221.13
2022-12-03T11:14:07.100Z,101217.38
2022-12-03T11:16:43.883Z,101219.91
2022-12-03T11:19:40.311Z,101214.97
2022-12-03T11:22:11.569Z,101215.22
2022-12-03T11:24:42.787Z,101213.97
2022-12-03T11:27:13.583Z,101215.31
2022-12-03T11:29:50.426Z,101215.19
2022-12-03T11:33:00.853Z,101211.16
2022-12-03T11:36:36.492Z,101200.19
2022-12-03T11:39:12.178Z,101206.91
2022-12-03T11:42:28.912Z,101210.94
2022-12-03T11:45:07.273Z,101208.69
2022-12-03T11:47:50.442Z,101208.19
2022-12-03T11:50:33.570Z,101215.66
2022-12-03T11:53:16.067Z,101205.16
2022-12-03T11:55:50.359Z,101206.88
2022-12-03T11:58:30.235Z,101209.44
2022-12-03T12:01:03.524Z,101208.38
2022-12-03T12:03:35.402Z,101206.25
2022-12-03T12:06:17.302Z,101202.56
2022-12-03T12:08:53.938Z,101208.72
2022-12-03T12:11:43.206Z,101211.53
2022-12-03T12:14:15.298Z,101207.53
2022-12-03T12:16:52.296Z,101211.16
2022-12-03T12:19:43.976Z,101210.47
2022-12-03T12:22:19.204Z,101209.53
2022-12-03T12:24:54.797Z,101209.88
2022-12-03T12:27:46.494Z,101210.00
2022-12-03T12:30:20.694Z,101202.34
2022-12-03T12:32:54.355Z,101211.22
2022-12-03T12:35:27.311Z,101208.50
2022-12-03T12:38:12.422Z,101218.53
2022-12-03T12:41:08.668Z,101220.63
2022-12-03T12:43:48.519Z,101214.09
2022-12-03T12:46:46.767Z,101221.13
2022-12-03T12:49:17.557Z,101228.25
2022-12-03T12:51:49.658Z,101222.63
2022-12-03T12:54:20.859Z,101226.44
2022-12-03T12:56:52.129Z,101223.97
2022-12-03T12:59:25.777Z,101221.50
2022-12-03T13:01:56.900Z,101232.88
2022-12-03T13:04:29.992Z,101240.50
2022-12-03T13:07:02.102Z,101235.34
2022-12-03T13:09:33.245Z,101239.00
2022-12-03T13:12:08.869Z,101234.44
2022-12-03T13:14:39.894Z,101232.34
2022-12-03T13:17:16.587Z,101228.38
2022-12-03T13:19:52.784Z,101244.44
2022-12-03T13:22:32.367Z,101228.97
2022-12-03T13:25:58.128Z,101241.97
2022-12-03T13:28:28.018Z,101250.56
2022-12-03T13:31:04.133Z,101249.38
2022-12-03T13:33:35.728Z,101247.53
2022-12-03T13:36:07.823Z,101245.38
2022-12-03T13:38:38.667Z,101241.53
2022-12-03T13:41:35.424Z,101244.81
2022-12-03T13:44:18.185Z,101242.94
2022-12-03T13:46:49.531Z,101253.38
2022-12-03T13:49:25.134Z,101237.53
2022-12-03T13:51:55.842Z,101256.16
2022-12-03T13:54:29.604Z,101243.16
2022-12-03T13:57:01.691Z,101235.75
2022-12-03T13:59:32.596Z,101240.56
2022-12-03T14:02:03.597Z,101230.50
2022-12-03T14:04:34.581Z,101246.19
2022-12-03T14:07:05.281Z,101238.53
2022-12-03T14:09:36.099Z,101244.78
2022-12-03T14:12:25.274Z,101248.75
2022-12-03T14:15:08.624Z,101249.03
2022-12-03T14:17:41.899Z,101252.84
2022-12-03T14:20:16.004Z,101253.44
2022-12-03T14:22:49.402Z,101261.66
2022-12-03T14:25:31.373Z,101254.72
2022-12-03T14:28:16.661Z,101245.78
2022-12-03T14:30:56.985Z,101250.16
2022-12-03T14:33:33.726Z,101243.28
2022-12-03T14:36:04.789Z,101248.91
2022-12-03T14:38:36.166Z,101250.44
2022-12-03T14:41:36.002Z,101255.22
2022-12-03T14:44:06.975Z,101245.72
2022-12-03T14:46:37.697Z,101252.22
2022-12-03T14:49:18.147Z,101248.25
2022-12-03T14:51:52.406Z,101246.63
2022-12-03T14:54:31.812Z,101242.50
2022-12-03T14:57:05.283Z,101245.28
2022-12-03T14:59:36.253Z,101247.53
2022-12-03T15:02:09.972Z,101245.66
2022-12-03T15:04:41.847Z,101236.66
2022-12-03T15:07:12.321Z,101244.50
2022-12-03T15:09:43.255Z,101246.41
2022-12-03T15:12:14.250Z,101251.53
2022-12-03T15:14:56.659Z,101251.09
2022-12-03T15:17:40.268Z,101252.38
2022-12-03T15:20:11.711Z,101250.47
2022-12-03T15:22:42.928Z,101247.44
2022-12-03T15:25:14.282Z,101244.41
2022-12-03T15:27:48.404Z,101257.97
2022-12-03T15:30:22.215Z,101254.69
2022-12-03T15:35:45.719Z,101253.63
2022-12-03T15:38:17.838Z,101252.47
2022-12-03T15:40:49.199Z,101255.81
2022-12-03T15:43:20.207Z,101256.81
2022-12-03T15:45:51.105Z,101256.09
2022-12-03T15:48:21.983Z,101255.59
2022-12-03T15:50:52.671Z,101258.75
2022-12-03T15:53:23.360Z,101258.50
2022-12-03T15:55:54.218Z,101262.75
2022-12-03T15:58:24.912Z,101266.66
2022-12-03T16:00:55.613Z,101267.41
2022-12-03T16:03:43.622Z,101261.06
2022-12-03T16:06:44.438Z,101268.00
2022-12-03T16:09:41.869Z,101255.81
2022-12-03T16:12:15.105Z,101271.16
2022-12-03T16:14:46.005Z,101270.69
2022-12-03T16:17:22.035Z,101267.09
2022-12-03T16:20:17.840Z,101277.06
2022-12-03T16:23:36.740Z,101291.34
2022-12-03T16:26:11.460Z,101267.84
2022-12-03T16:28:44.588Z,101281.03
2022-12-03T16:31:20.459Z,101291.28
2022-12-03T16:33:54.128Z,101300.03
2022-12-03T16:36:37.857Z,101300.31
2022-12-03T16:39:37.380Z,101302.31
2022-12-03T16:42:17.246Z,101301.91
2022-12-03T16:45:13.515Z,101303.88
2022-12-03T16:48:01.502Z,101313.91
2022-12-03T16:50:32.537Z,101311.03
2022-12-03T16:53:03.490Z,101310.28
2022-12-03T16:55:34.379Z,101319.28
2022-12-03T16:58:05.031Z,101318.34
2022-12-03T17:00:36.147Z,101318.13
2022-12-03T17:03:06.936Z,101315.91
2022-12-03T17:05:38.144Z,101323.41
2022-12-03T17:08:09.127Z,101331.56
2022-12-03T17:10:40.474Z,101335.22
2022-12-03T17:13:11.695Z,101343.91
2022-12-03T17:15:42.873Z,101345.41
2022-12-03T17:18:14.132Z,101337.53
2022-12-03T17:20:45.067Z,101343.09
2022-12-03T17:23:15.929Z,101351.44
2022-12-03T17:25:47.158Z,101352.81
2022-12-03T17:28:19.436Z,101362.00
2022-12-03T17:30:50.156Z,101362.03
2022-12-03T17:33:21.055Z,101355.59
2022-12-03T17:35:52.367Z,101369.66
2022-12-03T17:38:23.255Z,101370.31
2022-12-03T17:40:54.096Z,101367.22
2022-12-03T17:43:25.030Z,101369.50
2022-12-03T17:45:57.452Z,101376.44
2022-12-03T17:48:32.672Z,101373.13
2022-12-03T17:51:03.785Z,101371.28
2022-12-03T17:53:34.651Z,101364.47
2022-12-03T17:56:05.483Z,101377.31
2022-12-03T17:58:36.252Z,101374.16
2022-12-03T18:01:10.006Z,101384.13
2022-12-03T18:03:40.786Z,101388.66
2022-12-03T18:06:11.696Z,101391.47
2022-12-03T18:08:42.504Z,101394.03
2022-12-03T18:11:13.521Z,101396.66
2022-12-03T18:13:44.337Z,101391.84
2022-12-03T18:16:16.156Z,101403.81
2022-12-03T18:18:47.674Z,101401.72
2022-12-03T18:21:20.032Z,101406.97
2022-12-03T18:23:50.828Z,101410.09
2022-12-03T18:26:21.717Z,101410.16
2022-12-03T18:28:52.552Z,101414.22
2022-12-03T18:31:24.828Z,101407.72
2022-12-03T18:33:55.803Z,101416.56
2022-12-03T18:36:31.439Z,101417.22
2022-12-03T18:39:02.901Z,101419.47
2022-12-03T18:41:35.582Z,101419.31
2022-12-03T18:44:11.659Z,101427.41
2022-12-03T18:46:53.398Z,101424.19
2022-12-03T18:49:25.066Z,101425.75
2022-12-03T18:51:59.290Z,101432.22
2022-12-03T18:54:30.584Z,101429.66
2022-12-03T18:57:01.571Z,101412.19
2022-12-03T18:59:32.490Z,101420.94
2022-12-03T19:02:03.494Z,101421.78
2022-12-03T19:04:34.427Z,101423.44
2022-12-03T19:07:05.215Z,101433.13
2022-12-03T19:09:36.239Z,101431.53
2022-12-03T19:12:12.846Z,101436.84
2022-12-03T19:14:45.634Z,101426.31
2022-12-03T19:17:16.556Z,101432.28
2022-12-03T19:19:47.981Z,101443.09
2022-12-03T19:22:18.661Z,101441.22
2022-12-03T19:24:49.748Z,101445.72
2022-12-03T19:27:21.126Z,101454.38
2022-12-03T19:29:52.702Z,101450.94
2022-12-03T19:32:23.781Z,101448.97
2022-12-03T19:34:55.266Z,101463.44
2022-12-03T19:37:26.709Z,101462.03
2022-12-03T19:39:57.825Z,101453.31
2022-12-03T19:42:29.057Z,101466.72
2022-12-03T19:44:59.830Z,101473.00
2022-12-03T19:47:30.580Z,101477.91
2022-12-03T19:50:01.652Z,101479.56
2022-12-03T19:52:33.439Z,101476.84
2022-12-03T19:55:04.231Z,101478.44
2022-12-03T19:57:37.316Z,101481.75
2022-12-03T20:00:09.070Z,101485.00
2022-12-03T20:02:42.626Z,101482.81
2022-12-03T20:05:13.818Z,101478.13
2022-12-03T20:07:44.847Z,101483.16
2022-12-03T20:10:21.103Z,101481.66
2022-12-03T20:12:51.758Z,101487.69
2022-12-03T20:15:22.539Z,101485.47
2022-12-03T20:17:53.435Z,101479.09
2022-12-03T20:20:24.621Z,101481.22
2022-12-03T20:22:55.547Z,101474.78
2022-12-03T20:25:26.479Z,101475.03
2022-12-03T20:27:57.213Z,101479.78
2022-12-03T20:30:28.313Z,101471.31
2022-12-03T20:32:59.067Z,101469.56
2022-12-03T20:35:31.591Z,101474.31
2022-12-03T20:38:02.819Z,101471.28
2022-12-03T20:40:37.170Z,101468.91
2022-12-03T20:43:08.095Z,101460.38
2022-12-03T20:45:39.026Z,101458.03
2022-12-03T20:48:10.173Z,101462.22
2022-12-03T20:50:41.469Z,101456.84
2022-12-03T20:53:25.788Z,101454.09
2022-12-03T20:56:01.579Z,101455.78
2022-12-03T20:58:33.316Z,101456.06
2022-12-03T21:01:16.173Z,101459.03
2022-12-03T21:03:48.249Z,101454.34
2022-12-03T21:06:19.905Z,101459.50
2022-12-03T21:08:50.464Z,101457.69
2022-12-03T21:11:25.431Z,101452.81
2022-12-03T21:13:56.733Z,101451.06
2022-12-03T21:16:59.389Z,101455.66
2022-12-03T21:19:22.301Z,101461.66
2022-12-03T21:21:53.161Z,101450.41
2022-12-03T21:24:23.903Z,101449.31
2022-12-03T21:26:54.912Z,101449.78
2022-12-03T21:29:26.363Z,101448.59
2022-12-03T21:31:57.193Z,101436.56
2022-12-03T21:34:34.219Z,101439.81
2022-12-03T21:37:07.083Z,101438.31
2022-12-03T21:39:38.978Z,101443.88
2022-12-03T21:42:19.409Z,101432.72
2022-12-03T21:45:00.921Z,101429.63
2022-12-03T21:47:37.163Z,101446.69
2022-12-03T21:50:09.986Z,101431.41
2022-12-03T21:52:40.997Z,101431.09
2022-12-03T21:55:12.351Z,101437.56
2022-12-03T21:57:43.104Z,101440.34
2022-12-03T22:00:14.963Z,101429.84
2022-12-03T22:02:45.908Z,101438.13
2022-12-03T22:05:16.814Z,101395.66
2022-12-03T22:07:47.735Z,101435.72
2022-12-03T22:10:18.798Z,101433.19
2022-12-03T22:12:49.728Z,101431.19
2022-12-03T22:15:20.776Z,101437.34
2022-12-03T22:17:51.754Z,101439.13
2022-12-03T22:20:22.769Z,101434.09
2022-12-03T22:22:53.739Z,101426.78
2022-12-03T22:25:24.700Z,101438.66
2022-12-03T22:27:55.777Z,101427.44
2022-12-03T22:30:27.123Z,101424.72
2022-12-03T22:32:57.942Z,101431.84
2022-12-03T22:35:28.901Z,101421.44
2022-12-03T22:37:59.868Z,101420.59
2022-12-03T22:40:30.714Z,101432.66
2022-12-03T22:43:01.400Z,101430.41
2022-12-03T22:45:32.148Z,101428.19
2022-12-03T22:48:03.106Z,101437.38
2022-12-03T22:50:34.089Z,101421.66
2022-12-03T22:53:05.181Z,101436.91
2022-12-03T22:55:35.945Z,101421.22
2022-12-03T22:58:07.547Z,101427.47
2022-12-03T23:00:38.769Z,101424.94
2022-12-03T23:03:10.355Z,101430.25
2022-12-03T23:05:41.794Z,101424.59
2022-12-03T23:08:19.319Z,101427.94
2022-12-03T23:10:52.762Z,101427.75
2022-12-03T23:13:23.806Z,101425.69
2022-12-03T23:15:54.851Z,101418.75
2022-12-03T23:18:26.389Z,101415.91
2022-12-03T23:20:58.869Z,101428.72
2022-12-03T23:23:30.303Z,101414.59
2022-12-03T23:26:09.273Z,101423.72
2022-12-03T23:28:42.537Z,101418.00
2022-12-03T23:31:28.501Z,101436.75
2022-12-03T23:34:00.650Z,101426.44
2022-12-03T23:36:33.756Z,101425.22
2022-12-03T23:39:04.964Z,101431.31
2022-12-03T23:41:37.550Z,101430.50
2022-12-03T23:44:08.681Z,101428.97
2022-12-03T23:46:41.951Z,101420.22
2022-12-03T23:49:12.815Z,101426.66
2022-12-03T23:51:43.728Z,101418.66
2022-12-03T23:54:14.517Z,101423.13
2022-12-03T23:56:45.450Z,101420.56
2022-12-03T23:59:16.201Z,101435.56
